Time;durP1;ratioP1;P1;durP2;ratioP2;P2;SDS_P1;SDS_P2;PMS_P1;PMS_P2;Temp;Humidity;BMP_temperature;BMP_pressure;BME280_temperature;BME280_humidity;BME280_pressure;Samples;Min_cycle;Max_cycle;Signal;HPM_P1;HPM_P2
2021/08/28 00:01:41;;;;;;;;;;;21.80;44.80;;;;;;8362909;28;20332;-49
2021/08/28 00:05:41;;;;;;;;;;;21.80;44.80;;;;;;8362304;28;19924;-47
2021/08/28 00:09:42;;;;;;;;;;;21.80;44.90;;;;;;8363564;28;19928;-46
2021/08/28 00:13:43;;;;;;;;;;;21.80;44.90;;;;;;8363054;28;19917;-47
2021/08/28 00:17:44;;;;;;;;;;;21.80;44.80;;;;;;8362258;28;20292;-47
2021/08/28 00:21:44;;;;;;;;;;;21.80;44.80;;;;;;8362990;28;19912;-47
2021/08/28 00:25:45;;;;;;;;;;;21.80;44.90;;;;;;8362604;28;19917;-48
2021/08/28 00:29:45;;;;;;;;;;;21.80;44.90;;;;;;8363034;28;19931;-47
2021/08/28 00:33:46;;;;;;;;;;;21.80;44.80;;;;;;8368817;28;19923;-46
2021/08/28 00:37:46;;;;;;;;;;;21.80;44.90;;;;;;8368605;28;19955;-47
2021/08/28 00:41:47;;;;;;;;;;;21.80;44.90;;;;;;8368133;28;19970;-46
2021/08/28 00:45:47;;;;;;;;;;;21.80;44.80;;;;;;8369146;28;19921;-46
2021/08/28 00:49:50;;;;;;;;;;;21.70;44.80;;;;;;8368360;28;19917;-48
2021/08/28 00:53:51;;;;;;;;;;;21.70;44.80;;;;;;8368072;28;19917;-46
2021/08/28 00:57:53;;;;;;;;;;;21.70;44.80;;;;;;8368050;28;19966;-46
2021/08/28 01:01:53;;;;;;;;;;;21.70;44.80;;;;;;8368620;28;19991;-46
2021/08/28 01:06:06;;;;;;;;;;;21.70;44.80;;;;;;8367417;28;20301;-47
2021/08/28 01:10:08;;;;;;;;;;;21.70;44.80;;;;;;8367852;28;20414;-46
2021/08/28 01:14:29;;;;;;;;;;;21.70;44.80;;;;;;8367486;28;19917;-46
2021/08/28 01:18:29;;;;;;;;;;;21.70;44.80;;;;;;8367051;28;20051;-48
2021/08/28 01:22:30;;;;;;;;;;;21.70;44.80;;;;;;8368136;28;20384;-47
2021/08/28 01:26:40;;;;;;;;;;;21.60;44.80;;;;;;8366652;28;19936;-47
2021/08/28 01:30:42;;;;;;;;;;;21.70;44.90;;;;;;8367009;28;19996;-47
2021/08/28 01:34:43;;;;;;;;;;;21.70;44.90;;;;;;8366886;28;19912;-46
2021/08/28 01:38:44;;;;;;;;;;;21.70;44.90;;;;;;8366620;28;19990;-47
2021/08/28 01:42:46;;;;;;;;;;;21.60;44.80;;;;;;8366665;28;20392;-46
2021/08/28 01:46:47;;;;;;;;;;;21.70;44.90;;;;;;8366456;28;19924;-46
2021/08/28 01:50:47;;;;;;;;;;;21.70;44.90;;;;;;8366034;28;19960;-48
2021/08/28 01:54:52;;;;;;;;;;;21.70;44.90;;;;;;8366366;28;19912;-48
2021/08/28 01:58:57;;;;;;;;;;;21.60;44.90;;;;;;8366861;28;19917;-47
2021/08/28 02:02:57;;;;;;;;;;;21.60;44.90;;;;;;8365579;28;20300;-47
2021/08/28 02:07:16;;;;;;;;;;;21.60;44.90;;;;;;8365873;28;19936;-47
2021/08/28 02:11:21;;;;;;;;;;;21.60;44.90;;;;;;8365432;28;20404;-46
2021/08/28 02:15:31;;;;;;;;;;;21.60;44.90;;;;;;8366215;28;19917;-48
2021/08/28 02:19:32;;;;;;;;;;;21.60;44.90;;;;;;8366304;28;19913;-47
2021/08/28 02:23:36;;;;;;;;;;;21.60;44.90;;;;;;8365030;28;19940;-46
2021/08/28 02:27:42;;;;;;;;;;;21.50;44.90;;;;;;8365469;28;20404;-45
2021/08/28 02:31:44;;;;;;;;;;;21.60;44.90;;;;;;8365284;28;19964;-47
2021/08/28 02:35:44;;;;;;;;;;;21.60;44.90;;;;;;8364489;28;19921;-46
2021/08/28 02:39:45;;;;;;;;;;;21.60;45.00;;;;;;8365572;28;20338;-50
2021/08/28 02:43:47;;;;;;;;;;;21.60;45.00;;;;;;8364762;28;19925;-47
2021/08/28 02:47:48;;;;;;;;;;;21.50;44.80;;;;;;8364034;28;20365;-47
2021/08/28 02:51:49;;;;;;;;;;;21.50;44.90;;;;;;8364395;28;20392;-46
2021/08/28 02:55:50;;;;;;;;;;;21.50;44.90;;;;;;8365059;28;19944;-47
2021/08/28 02:59:51;;;;;;;;;;;21.50;44.90;;;;;;8363815;28;19917;-48
2021/08/28 03:03:52;;;;;;;;;;;21.50;44.90;;;;;;8364133;28;20348;-50
2021/08/28 03:07:52;;;;;;;;;;;21.50;44.90;;;;;;8363766;28;19924;-48
2021/08/28 03:11:53;;;;;;;;;;;21.50;44.90;;;;;;8364217;28;19920;-47
2021/08/28 03:15:54;;;;;;;;;;;21.50;44.90;;;;;;8364080;28;20297;-46
2021/08/28 03:19:56;;;;;;;;;;;21.50;44.90;;;;;;8363849;28;19943;-47
2021/08/28 03:23:57;;;;;;;;;;;21.50;45.00;;;;;;8363363;28;19916;-46
2021/08/28 03:27:58;;;;;;;;;;;21.50;45.00;;;;;;8363618;28;19940;-48
2021/08/28 03:31:59;;;;;;;;;;;21.40;44.90;;;;;;8364381;28;20385;-47
2021/08/28 03:36:00;;;;;;;;;;;21.40;44.90;;;;;;8362859;28;19999;-47
2021/08/28 03:40:01;;;;;;;;;;;21.40;44.90;;;;;;8363441;28;19921;-48
2021/08/28 03:44:01;;;;;;;;;;;21.40;45.00;;;;;;8363336;28;20344;-48
2021/08/28 03:48:02;;;;;;;;;;;21.40;45.00;;;;;;8363333;28;19921;-47
2021/08/28 03:52:03;;;;;;;;;;;21.40;45.00;;;;;;8363005;28;19917;-46
2021/08/28 03:56:04;;;;;;;;;;;21.40;45.00;;;;;;8362533;28;19994;-46
2021/08/28 04:00:05;;;;;;;;;;;21.40;45.00;;;;;;8363098;28;19920;-48
2021/08/28 04:04:05;;;;;;;;;;;21.40;45.00;;;;;;8362838;28;19920;-48
2021/08/28 04:08:06;;;;;;;;;;;21.40;45.10;;;;;;8368981;28;19924;-48
2021/08/28 04:12:06;;;;;;;;;;;21.40;45.10;;;;;;8369507;28;19917;-47
2021/08/28 04:16:07;;;;;;;;;;;21.40;45.00;;;;;;8369599;28;20371;-48
2021/08/28 04:20:07;;;;;;;;;;;21.40;45.00;;;;;;8368897;28;20316;-51
2021/08/28 04:24:08;;;;;;;;;;;21.30;45.00;;;;;;8369913;28;19913;-50
2021/08/28 04:28:08;;;;;;;;;;;21.30;45.10;;;;;;8369059;28;19925;-47
2021/08/28 04:32:09;;;;;;;;;;;21.30;45.00;;;;;;8368464;28;19916;-48
2021/08/28 04:36:09;;;;;;;;;;;21.30;45.00;;;;;;8368984;28;19917;-47
2021/08/28 04:40:10;;;;;;;;;;;21.30;45.00;;;;;;8369363;28;19959;-52
2021/08/28 04:44:11;;;;;;;;;;;21.30;45.00;;;;;;8368173;28;20403;-47
2021/08/28 04:48:11;;;;;;;;;;;21.30;45.10;;;;;;8368322;28;19932;-49
2021/08/28 04:52:11;;;;;;;;;;;21.30;45.10;;;;;;8368077;28;19924;-48
2021/08/28 04:56:12;;;;;;;;;;;21.30;45.10;;;;;;8367785;28;19912;-49
2021/08/28 05:00:13;;;;;;;;;;;21.30;45.10;;;;;;8368828;28;20373;-48
2021/08/28 05:04:13;;;;;;;;;;;21.30;45.10;;;;;;8367813;28;19916;-48
2021/08/28 05:08:13;;;;;;;;;;;21.30;45.10;;;;;;8367141;28;19936;-49
2021/08/28 05:12:14;;;;;;;;;;;21.30;45.10;;;;;;8367819;28;20449;-48
2021/08/28 05:16:14;;;;;;;;;;;21.30;45.20;;;;;;8368224;28;19970;-49
2021/08/28 05:20:15;;;;;;;;;;;21.20;45.10;;;;;;8366993;28;19917;-48
2021/08/28 05:24:15;;;;;;;;;;;21.30;45.10;;;;;;8367471;28;19916;-49
2021/08/28 05:28:16;;;;;;;;;;;21.20;45.10;;;;;;8367327;28;19925;-50
2021/08/28 05:32:16;;;;;;;;;;;21.20;45.10;;;;;;8367443;28;19939;-49
2021/08/28 05:36:17;;;;;;;;;;;21.20;45.10;;;;;;8367138;28;19917;-53
2021/08/28 05:40:19;;;;;;;;;;;21.20;45.20;;;;;;8366771;28;19970;-52
2021/08/28 05:44:20;;;;;;;;;;;21.20;45.10;;;;;;8366322;28;19924;-48
2021/08/28 05:48:20;;;;;;;;;;;21.20;45.20;;;;;;8366436;28;20015;-52
2021/08/28 05:52:20;;;;;;;;;;;21.20;45.20;;;;;;8367200;28;20270;-48
2021/08/28 05:56:21;;;;;;;;;;;21.20;45.20;;;;;;8365825;28;19923;-49
2021/08/28 06:00:21;;;;;;;;;;;21.20;45.20;;;;;;8366558;28;20365;-51
2021/08/28 06:04:22;;;;;;;;;;;21.20;45.20;;;;;;8366018;28;19971;-49
2021/08/28 06:08:22;;;;;;;;;;;21.20;45.20;;;;;;8366146;28;19968;-48
2021/08/28 06:12:23;;;;;;;;;;;21.20;45.20;;;;;;8365656;28;19917;-51
2021/08/28 06:16:23;;;;;;;;;;;21.20;45.20;;;;;;8365631;28;19920;-52
2021/08/28 06:20:24;;;;;;;;;;;21.20;45.20;;;;;;8365122;28;20295;-51
2021/08/28 06:24:25;;;;;;;;;;;21.20;45.20;;;;;;8365977;28;19924;-51
2021/08/28 06:28:25;;;;;;;;;;;21.20;45.20;;;;;;8365192;28;19925;-48
2021/08/28 06:32:27;;;;;;;;;;;21.20;45.30;;;;;;8364759;28;19916;-51
2021/08/28 06:36:27;;;;;;;;;;;21.20;45.30;;;;;;8365209;28;19956;-50
2021/08/28 06:40:28;;;;;;;;;;;21.20;45.30;;;;;;8364882;28;19917;-48
2021/08/28 06:44:28;;;;;;;;;;;21.20;45.30;;;;;;8365101;28;19917;-50
2021/08/28 06:48:28;;;;;;;;;;;21.10;45.30;;;;;;8364685;28;19925;-49
2021/08/28 06:52:29;;;;;;;;;;;21.20;45.30;;;;;;8364497;28;19920;-49
2021/08/28 06:56:29;;;;;;;;;;;21.20;45.30;;;;;;8363738;28;19921;-48
2021/08/28 07:00:30;;;;;;;;;;;21.10;45.30;;;;;;8364869;28;19917;-48
2021/08/28 07:04:30;;;;;;;;;;;21.10;45.30;;;;;;8363988;28;19920;-52
2021/08/28 07:08:31;;;;;;;;;;;21.20;45.40;;;;;;8363509;28;20277;-48
2021/08/28 07:12:31;;;;;;;;;;;21.10;45.30;;;;;;8364096;28;20003;-49
2021/08/28 07:16:32;;;;;;;;;;;21.10;45.30;;;;;;8364256;28;19924;-51
2021/08/28 07:20:32;;;;;;;;;;;21.20;45.40;;;;;;8364070;28;20369;-49
2021/08/28 07:24:33;;;;;;;;;;;21.20;45.30;;;;;;8363684;28;19923;-48
2021/08/28 07:28:33;;;;;;;;;;;21.20;45.30;;;;;;8363492;28;19921;-48
2021/08/28 07:32:34;;;;;;;;;;;21.20;45.30;;;;;;8362717;28;19923;-50
2021/08/28 07:36:34;;;;;;;;;;;21.20;45.30;;;;;;8364405;28;20414;-52
2021/08/28 07:40:35;;;;;;;;;;;21.20;45.30;;;;;;8362397;28;19967;-49
2021/08/28 07:44:35;;;;;;;;;;;21.10;45.30;;;;;;8362773;28;19969;-49
2021/08/28 07:48:36;;;;;;;;;;;21.20;45.30;;;;;;8363546;28;19928;-49
2021/08/28 07:52:39;;;;;;;;;;;21.20;45.30;;;;;;8364164;28;19916;-49
2021/08/28 07:56:40;;;;;;;;;;;21.20;45.30;;;;;;8362669;28;20285;-49
2021/08/28 08:00:41;;;;;;;;;;;21.20;45.30;;;;;;8363240;28;19948;-48
2021/08/28 08:04:41;;;;;;;;;;;21.20;45.30;;;;;;8363025;28;19913;-48
2021/08/28 08:08:41;;;;;;;;;;;21.20;45.30;;;;;;8362723;28;20699;-51
2021/08/28 08:12:42;;;;;;;;;;;21.20;45.30;;;;;;8363760;28;19920;-48
2021/08/28 08:16:42;;;;;;;;;;;21.20;45.30;;;;;;8362988;28;19920;-50
2021/08/28 08:20:43;;;;;;;;;;;21.20;45.30;;;;;;8362256;28;19916;-50
2021/08/28 08:24:44;;;;;;;;;;;21.20;45.30;;;;;;8362687;28;19935;-50
2021/08/28 08:28:45;;;;;;;;;;;21.20;45.30;;;;;;8363221;28;19974;-48
2021/08/28 08:32:45;;;;;;;;;;;21.20;45.30;;;;;;8362228;28;19917;-48
2021/08/28 08:36:46;;;;;;;;;;;21.30;45.30;;;;;;8362604;28;19970;-48
2021/08/28 08:40:47;;;;;;;;;;;21.30;45.30;;;;;;8362367;28;20400;-49
2021/08/28 08:44:48;;;;;;;;;;;21.30;45.30;;;;;;8362303;28;19917;-48
2021/08/28 08:48:49;;;;;;;;;;;21.30;45.30;;;;;;8362744;28;19952;-48
2021/08/28 08:52:52;;;;;;;;;;;21.30;45.30;;;;;;8365564;28;19917;-49
2021/08/28 08:56:53;;;;;;;;;;;21.30;45.30;;;;;;8367797;28;19924;-47
2021/08/28 09:00:53;;;;;;;;;;;21.30;45.30;;;;;;8368092;28;20373;-49
2021/08/28 09:04:53;;;;;;;;;;;21.30;45.30;;;;;;8368736;28;20297;-51
2021/08/28 09:08:54;;;;;;;;;;;21.30;45.30;;;;;;8367277;28;19928;-51
2021/08/28 09:12:54;;;;;;;;;;;21.30;45.30;;;;;;8367728;28;19922;-50
2021/08/28 09:16:55;;;;;;;;;;;21.30;45.30;;;;;;8367515;28;19917;-48
2021/08/28 09:20:57;;;;;;;;;;;21.30;45.30;;;;;;8367762;28;19948;-47
2021/08/28 09:25:01;;;;;;;;;;;21.40;45.40;;;;;;8367475;28;19917;-48
2021/08/28 09:29:03;;;;;;;;;;;21.40;45.40;;;;;;8367130;28;19921;-48
2021/08/28 09:33:08;;;;;;;;;;;21.40;45.40;;;;;;8366745;28;19920;-46
2021/08/28 09:37:08;;;;;;;;;;;21.40;45.40;;;;;;8366992;28;20020;-48
2021/08/28 09:41:09;;;;;;;;;;;21.40;45.40;;;;;;8367846;28;19917;-49
2021/08/28 09:45:11;;;;;;;;;;;21.40;45.40;;;;;;8366686;28;20015;-48
2021/08/28 09:49:11;;;;;;;;;;;21.40;45.40;;;;;;8366690;28;19921;-51
2021/08/28 09:53:14;;;;;;;;;;;21.40;45.30;;;;;;8365877;28;20012;-48
2021/08/28 09:57:14;;;;;;;;;;;21.50;45.40;;;;;;8367059;28;19992;-47
2021/08/28 10:01:19;;;;;;;;;;;21.50;45.40;;;;;;8366252;28;20345;-48
2021/08/28 10:05:20;;;;;;;;;;;21.50;45.40;;;;;;8364954;28;19920;-48
2021/08/28 10:09:20;;;;;;;;;;;21.50;45.50;;;;;;8366228;28;19960;-47
2021/08/28 10:13:22;;;;;;;;;;;21.50;45.50;;;;;;8366263;28;19913;-50
2021/08/28 10:17:23;;;;;;;;;;;21.50;45.50;;;;;;8353019;28;19918;-49
2021/08/28 10:21:23;;;;;;;;;;;21.60;45.50;;;;;;8319331;28;19921;-47
2021/08/28 10:25:24;;;;;;;;;;;21.60;45.50;;;;;;8347473;28;20307;-47
2021/08/28 10:29:25;;;;;;;;;;;21.60;45.50;;;;;;8340511;28;19964;-48
2021/08/28 10:33:25;;;;;;;;;;;21.60;45.50;;;;;;8366256;28;19916;-47
2021/08/28 10:37:26;;;;;;;;;;;21.60;45.40;;;;;;8365118;28;19917;-49
2021/08/28 10:41:26;;;;;;;;;;;21.60;45.40;;;;;;8364516;28;19935;-47
2021/08/28 10:45:28;;;;;;;;;;;21.70;45.40;;;;;;8364902;28;20000;-47
2021/08/28 10:49:30;;;;;;;;;;;21.60;45.40;;;;;;8365334;28;19921;-48
2021/08/28 10:53:34;;;;;;;;;;;21.60;45.40;;;;;;8364242;28;19927;-47
2021/08/28 10:57:35;;;;;;;;;;;21.60;45.40;;;;;;8364581;28;19952;-50
2021/08/28 11:01:51;;;;;;;;;;;21.70;45.40;;;;;;8364333;28;19917;-47
2021/08/28 11:06:10;;;;;;;;;;;21.70;45.50;;;;;;8363922;28;19939;-47
2021/08/28 11:10:12;;;;;;;;;;;21.70;45.40;;;;;;8365024;28;20419;-48
2021/08/28 11:14:14;;;;;;;;;;;21.70;45.40;;;;;;8363501;28;20451;-47
2021/08/28 11:18:34;;;;;;;;;;;21.70;45.40;;;;;;8364222;28;19918;-49
2021/08/28 11:22:36;;;;;;;;;;;21.70;45.40;;;;;;8363547;28;19919;-47
2021/08/28 11:26:36;;;;;;;;;;;21.70;45.50;;;;;;8363081;28;19931;-47
2021/08/28 11:30:46;;;;;;;;;;;21.70;45.50;;;;;;8364550;28;20369;-47
2021/08/28 11:34:50;;;;;;;;;;;21.70;45.50;;;;;;8363436;28;19917;-48
2021/08/28 11:38:52;;;;;;;;;;;21.60;45.50;;;;;;8362991;28;20415;-48
2021/08/28 11:42:53;;;;;;;;;;;21.70;45.60;;;;;;8363501;28;19935;-47
2021/08/28 11:46:53;;;;;;;;;;;21.60;45.60;;;;;;8363608;28;19925;-48
2021/08/28 11:50:55;;;;;;;;;;;21.60;45.60;;;;;;8363067;28;19921;-49
2021/08/28 11:54:57;;;;;;;;;;;21.60;45.60;;;;;;8362940;28;19924;-48
2021/08/28 11:58:58;;;;;;;;;;;21.60;45.60;;;;;;8363212;28;19956;-48
2021/08/28 12:02:59;;;;;;;;;;;21.60;45.70;;;;;;8362521;28;19917;-49
2021/08/28 12:07:01;;;;;;;;;;;21.60;45.70;;;;;;8363525;28;19925;-48
2021/08/28 12:11:03;;;;;;;;;;;21.60;45.70;;;;;;8362827;28;19924;-49
2021/08/28 12:15:05;;;;;;;;;;;21.60;45.70;;;;;;8362928;28;20003;-47
2021/08/28 12:19:18;;;;;;;;;;;21.70;45.80;;;;;;8362997;28;19944;-51
2021/08/28 12:23:19;;;;;;;;;;;21.60;45.80;;;;;;8362522;28;19919;-49
2021/08/28 12:27:20;;;;;;;;;;;21.70;45.90;;;;;;8365899;28;19921;-48
2021/08/28 12:31:20;;;;;;;;;;;21.70;45.90;;;;;;8369009;28;20353;-52
2021/08/28 12:35:22;;;;;;;;;;;21.60;45.80;;;;;;8367763;28;21335;-48
2021/08/28 12:39:23;;;;;;;;;;;21.60;45.80;;;;;;8369160;28;20387;-50
2021/08/28 12:43:24;;;;;;;;;;;21.60;45.90;;;;;;8369355;28;19913;-48
2021/08/28 12:47:26;;;;;;;;;;;21.70;45.90;;;;;;8368019;28;19925;-48
2021/08/28 12:51:26;;;;;;;;;;;21.70;45.90;;;;;;8368358;28;19917;-48
2021/08/28 12:55:29;;;;;;;;;;;21.70;45.80;;;;;;8368200;28;19917;-49
2021/08/28 12:59:30;;;;;;;;;;;21.70;45.80;;;;;;8368530;28;20319;-49
2021/08/28 13:03:30;;;;;;;;;;;21.70;45.80;;;;;;8368210;28;20362;-47
2021/08/28 13:07:31;;;;;;;;;;;21.70;45.80;;;;;;8368066;28;19929;-48
2021/08/28 13:11:31;;;;;;;;;;;21.70;45.70;;;;;;8367296;28;19921;-47
2021/08/28 13:15:31;;;;;;;;;;;21.70;45.70;;;;;;8367403;28;19949;-48
2021/08/28 13:19:33;;;;;;;;;;;21.70;45.70;;;;;;8368218;28;19913;-49
2021/08/28 13:23:33;;;;;;;;;;;21.70;45.70;;;;;;8367033;28;19917;-48
2021/08/28 13:27:40;;;;;;;;;;;21.70;45.70;;;;;;8367181;28;20334;-48
2021/08/28 13:31:40;;;;;;;;;;;21.70;45.70;;;;;;8367013;28;19957;-48
2021/08/28 13:35:41;;;;;;;;;;;21.70;45.70;;;;;;8367584;28;19956;-49
2021/08/28 13:39:43;;;;;;;;;;;21.70;45.70;;;;;;8365383;28;20373;-48
2021/08/28 13:43:43;;;;;;;;;;;21.70;45.70;;;;;;8366899;28;19921;-49
2021/08/28 13:47:45;;;;;;;;;;;21.70;45.70;;;;;;8366063;28;19931;-48
2021/08/28 13:51:46;;;;;;;;;;;21.70;45.70;;;;;;8366494;28;19917;-48
2021/08/28 13:55:46;;;;;;;;;;;21.70;45.70;;;;;;8367076;28;19935;-49
2021/08/28 13:59:46;;;;;;;;;;;21.70;45.70;;;;;;8365839;28;20392;-47
2021/08/28 14:03:47;;;;;;;;;;;21.70;45.70;;;;;;8366165;28;19940;-48
2021/08/28 14:07:47;;;;;;;;;;;21.70;45.70;;;;;;8365747;28;19925;-50
2021/08/28 14:11:48;;;;;;;;;;;21.70;45.70;;;;;;8366344;28;20047;-48
2021/08/28 14:15:48;;;;;;;;;;;21.70;45.70;;;;;;8366013;28;19939;-50
2021/08/28 14:19:49;;;;;;;;;;;21.70;45.70;;;;;;8365455;28;19970;-48
2021/08/28 14:23:51;;;;;;;;;;;21.70;45.70;;;;;;8365106;28;19963;-49
2021/08/28 14:27:52;;;;;;;;;;;21.70;45.70;;;;;;8365969;28;20016;-49
2021/08/28 14:31:52;;;;;;;;;;;21.70;45.70;;;;;;8365119;28;19917;-49
2021/08/28 14:35:53;;;;;;;;;;;21.70;45.70;;;;;;8364809;28;20352;-52
2021/08/28 14:39:53;;;;;;;;;;;21.70;45.70;;;;;;8364899;28;19924;-49
2021/08/28 14:43:54;;;;;;;;;;;21.60;45.70;;;;;;8364962;28;19913;-49
2021/08/28 14:47:54;;;;;;;;;;;21.60;45.70;;;;;;8364971;28;19999;-49
2021/08/28 14:51:55;;;;;;;;;;;21.60;45.70;;;;;;8364313;28;19921;-49
2021/08/28 14:55:55;;;;;;;;;;;21.60;45.70;;;;;;8364335;28;19921;-49
2021/08/28 14:59:56;;;;;;;;;;;21.60;45.70;;;;;;8363920;28;20354;-48
2021/08/28 15:03:56;;;;;;;;;;;21.70;45.70;;;;;;8365138;28;19919;-47
2021/08/28 15:07:57;;;;;;;;;;;21.60;45.70;;;;;;8363799;28;20325;-49
2021/08/28 15:11:57;;;;;;;;;;;21.70;45.80;;;;;;8363606;28;20285;-49
2021/08/28 15:15:58;;;;;;;;;;;21.70;45.80;;;;;;8363966;28;19921;-50
2021/08/28 15:19:58;;;;;;;;;;;21.60;45.80;;;;;;8364508;28;19923;-49
2021/08/28 15:24:02;;;;;;;;;;;21.70;45.80;;;;;;8363442;28;19920;-48
2021/08/28 15:28:03;;;;;;;;;;;21.70;45.80;;;;;;8363618;28;19925;-49
2021/08/28 15:32:04;;;;;;;;;;;21.60;45.80;;;;;;8363027;28;20015;-49
2021/08/28 15:36:06;;;;;;;;;;;21.60;45.80;;;;;;8362427;28;19921;-50
2021/08/28 15:40:07;;;;;;;;;;;21.70;45.90;;;;;;8364000;28;19913;-49
2021/08/28 15:44:07;;;;;;;;;;;21.60;45.80;;;;;;8362787;28;19951;-49
2021/08/28 15:48:08;;;;;;;;;;;21.60;45.90;;;;;;8362969;28;19924;-49
2021/08/28 15:52:08;;;;;;;;;;;21.60;45.90;;;;;;8363082;28;19963;-52
2021/08/28 15:56:09;;;;;;;;;;;21.70;45.90;;;;;;8363618;28;20043;-48
2021/08/28 16:00:10;;;;;;;;;;;21.60;45.90;;;;;;8362785;28;20327;-49
2021/08/28 16:04:11;;;;;;;;;;;21.70;45.90;;;;;;8368858;28;19917;-47
2021/08/28 16:08:11;;;;;;;;;;;21.60;45.90;;;;;;8368992;28;19925;-47
2021/08/28 16:12:12;;;;;;;;;;;21.70;46.00;;;;;;8369532;28;19917;-50
2021/08/28 16:16:13;;;;;;;;;;;21.60;46.00;;;;;;8370247;28;20350;-51
2021/08/28 16:20:14;;;;;;;;;;;21.60;45.90;;;;;;8369064;28;19913;-50
2021/08/28 16:24:14;;;;;;;;;;;21.60;45.90;;;;;;8369898;28;19994;-51
2021/08/28 16:28:15;;;;;;;;;;;21.60;46.00;;;;;;8342566;28;19929;-48
2021/08/28 16:32:16;;;;;;;;;;;21.60;46.00;;;;;;8369216;28;19916;-47
2021/08/28 16:36:16;;;;;;;;;;;21.60;46.00;;;;;;8368732;28;19917;-47
2021/08/28 16:40:17;;;;;;;;;;;21.60;46.00;;;;;;8368835;28;19913;-50
2021/08/28 16:44:17;;;;;;;;;;;21.60;46.00;;;;;;8368350;28;19994;-48
2021/08/28 16:48:18;;;;;;;;;;;21.60;46.00;;;;;;8369399;28;20007;-47
2021/08/28 16:52:18;;;;;;;;;;;21.60;46.00;;;;;;8368551;28;19917;-51
2021/08/28 16:56:19;;;;;;;;;;;21.70;46.10;;;;;;8367790;28;19913;-48
2021/08/28 17:00:20;;;;;;;;;;;21.60;46.10;;;;;;8368206;28;19952;-47
2021/08/28 17:04:20;;;;;;;;;;;21.60;46.00;;;;;;8368154;28;20016;-47
2021/08/28 17:08:20;;;;;;;;;;;21.60;46.00;;;;;;8368160;28;19964;-49
2021/08/28 17:12:21;;;;;;;;;;;21.60;46.00;;;;;;8367432;28;19996;-47
2021/08/28 17:16:22;;;;;;;;;;;21.60;46.00;;;;;;8367971;28;19936;-48
2021/08/28 17:20:22;;;;;;;;;;;21.60;46.00;;;;;;8367239;28;20012;-51
2021/08/28 17:24:23;;;;;;;;;;;21.60;46.10;;;;;;8368434;28;19913;-49
2021/08/28 17:28:24;;;;;;;;;;;21.60;46.10;;;;;;8367087;28;19931;-49
2021/08/28 17:32:24;;;;;;;;;;;21.60;46.10;;;;;;8366757;28;19917;-46
2021/08/28 17:36:25;;;;;;;;;;;21.60;46.10;;;;;;8367354;28;19917;-51
2021/08/28 17:40:25;;;;;;;;;;;21.50;46.10;;;;;;8367602;28;19999;-48
2021/08/28 17:44:26;;;;;;;;;;;21.60;46.10;;;;;;8366438;28;19917;-49
2021/08/28 17:48:29;;;;;;;;;;;21.60;46.10;;;;;;8366513;28;20381;-50
2021/08/28 17:52:29;;;;;;;;;;;21.50;46.10;;;;;;8366442;28;20476;-49
2021/08/28 17:56:30;;;;;;;;;;;21.60;46.10;;;;;;8365912;28;19992;-50
2021/08/28 18:00:30;;;;;;;;;;;21.60;46.10;;;;;;8366906;28;19924;-49
2021/08/28 18:04:31;;;;;;;;;;;21.50;46.10;;;;;;8365978;28;19920;-49
2021/08/28 18:08:31;;;;;;;;;;;21.60;46.20;;;;;;8365444;28;20004;-48
2021/08/28 18:12:31;;;;;;;;;;;21.50;46.20;;;;;;8364679;28;19913;-49
2021/08/28 18:16:32;;;;;;;;;;;21.50;46.10;;;;;;8366540;28;19962;-49
2021/08/28 18:20:32;;;;;;;;;;;21.50;46.20;;;;;;8365256;28;19924;-51
2021/08/28 18:24:34;;;;;;;;;;;21.50;46.20;;;;;;8364747;28;19916;-49
2021/08/28 18:28:34;;;;;;;;;;;21.50;46.20;;;;;;8365442;28;19920;-49
2021/08/28 18:32:35;;;;;;;;;;;21.50;46.20;;;;;;8365101;28;20383;-49
2021/08/28 18:36:36;;;;;;;;;;;21.50;46.20;;;;;;8365706;28;19921;-50
2021/08/28 18:40:37;;;;;;;;;;;21.50;46.20;;;;;;8365256;28;20285;-49
2021/08/28 18:44:37;;;;;;;;;;;21.50;46.30;;;;;;8364546;28;19921;-50
2021/08/28 18:48:38;;;;;;;;;;;21.50;46.30;;;;;;8365010;28;19927;-48
2021/08/28 18:52:38;;;;;;;;;;;21.50;46.30;;;;;;8365418;28;19917;-49
2021/08/28 18:56:38;;;;;;;;;;;21.50;46.30;;;;;;8364228;28;19920;-47
2021/08/28 19:00:39;;;;;;;;;;;21.50;46.30;;;;;;8364744;28;19917;-47
2021/08/28 19:04:39;;;;;;;;;;;21.50;46.30;;;;;;8364336;28;19921;-52
2021/08/28 19:08:40;;;;;;;;;;;21.50;46.30;;;;;;8364600;28;19931;-48
2021/08/28 19:12:40;;;;;;;;;;;21.50;46.30;;;;;;8364141;28;20388;-51
2021/08/28 19:16:41;;;;;;;;;;;21.50;46.40;;;;;;8364102;28;20292;-51
2021/08/28 19:20:41;;;;;;;;;;;21.50;46.40;;;;;;8363836;28;19944;-50
2021/08/28 19:24:42;;;;;;;;;;;21.50;46.40;;;;;;8364066;28;19913;-50
2021/08/28 19:28:42;;;;;;;;;;;21.50;46.40;;;;;;8364911;28;19929;-49
2021/08/28 19:32:43;;;;;;;;;;;21.50;46.40;;;;;;8363573;28;19916;-48
2021/08/28 19:36:43;;;;;;;;;;;21.50;46.50;;;;;;8363548;28;20004;-47
2021/08/28 19:40:44;;;;;;;;;;;21.50;46.40;;;;;;8363409;28;20000;-49
2021/08/28 19:44:46;;;;;;;;;;;21.40;46.40;;;;;;8363588;28;20000;-48
2021/08/28 19:48:46;;;;;;;;;;;21.40;46.40;;;;;;8363364;28;20015;-47
2021/08/28 19:52:47;;;;;;;;;;;21.40;46.50;;;;;;8363351;28;19913;-49
2021/08/28 19:56:47;;;;;;;;;;;21.40;46.50;;;;;;8362960;28;20326;-49
2021/08/28 20:00:48;;;;;;;;;;;21.40;46.50;;;;;;8363835;28;19935;-47
2021/08/28 20:04:48;;;;;;;;;;;21.40;46.50;;;;;;8363194;28;19963;-47
2021/08/28 20:08:48;;;;;;;;;;;21.40;46.50;;;;;;8362909;28;19925;-47
2021/08/28 20:12:49;;;;;;;;;;;21.40;46.50;;;;;;8362901;28;19920;-47
2021/08/28 20:16:49;;;;;;;;;;;21.40;46.50;;;;;;8362779;28;19924;-49
2021/08/28 20:20:50;;;;;;;;;;;21.40;46.50;;;;;;8363115;28;20270;-47
2021/08/28 20:24:50;;;;;;;;;;;21.40;46.50;;;;;;8362661;28;19917;-47
2021/08/28 20:28:51;;;;;;;;;;;21.40;46.60;;;;;;8362638;28;19921;-47
2021/08/28 20:32:51;;;;;;;;;;;21.40;46.60;;;;;;8362326;28;19924;-49
2021/08/28 20:36:52;;;;;;;;;;;21.40;46.50;;;;;;8363283;28;19913;-48
2021/08/28 20:40:52;;;;;;;;;;;21.40;46.60;;;;;;8362574;28;19956;-48
2021/08/28 20:44:53;;;;;;;;;;;21.40;46.60;;;;;;8362149;28;19917;-48
2021/08/28 20:48:53;;;;;;;;;;;21.40;46.60;;;;;;8365778;28;19956;-48
2021/08/28 20:52:55;;;;;;;;;;;21.40;46.60;;;;;;8369769;28;20289;-47
2021/08/28 20:56:56;;;;;;;;;;;21.40;46.60;;;;;;8368453;28;19917;-49
2021/08/28 21:00:56;;;;;;;;;;;21.40;46.60;;;;;;8368318;28;19944;-48
2021/08/28 21:04:56;;;;;;;;;;;21.40;46.60;;;;;;8367953;28;19924;-47
2021/08/28 21:08:57;;;;;;;;;;;21.40;46.60;;;;;;8366206;28;20316;-48
2021/08/28 21:12:57;;;;;;;;;;;21.30;46.60;;;;;;8368573;28;19913;-48
2021/08/28 21:16:58;;;;;;;;;;;21.40;46.60;;;;;;8367716;28;19960;-48
2021/08/28 21:20:58;;;;;;;;;;;21.40;46.60;;;;;;8367061;28;19917;-48
2021/08/28 21:24:59;;;;;;;;;;;21.30;46.60;;;;;;8366159;28;19924;-48
2021/08/28 21:28:59;;;;;;;;;;;21.30;46.60;;;;;;8368228;28;19925;-49
2021/08/28 21:33:00;;;;;;;;;;;21.30;46.70;;;;;;8366688;28;19979;-48
2021/08/28 21:37:00;;;;;;;;;;;21.30;46.70;;;;;;8367063;28;19917;-51
2021/08/28 21:41:01;;;;;;;;;;;21.30;46.70;;;;;;8366939;28;20358;-51
2021/08/28 21:45:02;;;;;;;;;;;21.30;46.70;;;;;;8366637;28;20421;-48
2021/08/28 21:49:03;;;;;;;;;;;21.30;46.80;;;;;;8367627;28;19928;-47
2021/08/28 21:53:03;;;;;;;;;;;21.30;46.70;;;;;;8366536;28;20262;-47
2021/08/28 21:57:04;;;;;;;;;;;21.30;46.80;;;;;;8366245;28;19917;-47
2021/08/28 22:01:04;;;;;;;;;;;21.30;46.80;;;;;;8364115;28;19971;-48
2021/08/28 22:05:05;;;;;;;;;;;21.30;46.80;;;;;;8366603;28;19917;-48
2021/08/28 22:09:05;;;;;;;;;;;21.30;46.70;;;;;;8365787;28;19958;-47
2021/08/28 22:13:06;;;;;;;;;;;21.30;46.70;;;;;;8366405;28;19921;-48
2021/08/28 22:17:06;;;;;;;;;;;21.30;46.70;;;;;;8365568;28;19959;-48
2021/08/28 22:21:07;;;;;;;;;;;21.30;46.70;;;;;;8366777;28;20011;-49
2021/08/28 22:25:08;;;;;;;;;;;21.30;46.70;;;;;;8365607;28;20003;-50
2021/08/28 22:29:09;;;;;;;;;;;21.30;47.30;;;;;;8365123;28;19925;-48
2021/08/28 22:33:09;;;;;;;;;;;21.30;46.80;;;;;;8365218;28;19917;-47
2021/08/28 22:37:09;;;;;;;;;;;21.30;46.80;;;;;;8365045;28;19913;-47
2021/08/28 22:41:10;;;;;;;;;;;21.30;46.80;;;;;;8365318;28;20302;-48
2021/08/28 22:45:11;;;;;;;;;;;21.30;46.80;;;;;;8364556;28;19923;-52
2021/08/28 22:49:11;;;;;;;;;;;21.20;46.80;;;;;;8365025;28;19921;-53
2021/08/28 22:53:12;;;;;;;;;;;21.30;46.80;;;;;;8364314;28;20373;-48
2021/08/28 22:57:12;;;;;;;;;;;21.20;46.80;;;;;;8365498;28;19920;-48
2021/08/28 23:01:13;;;;;;;;;;;21.20;46.80;;;;;;8364320;28;19924;-48
2021/08/28 23:05:13;;;;;;;;;;;21.30;46.80;;;;;;8363995;28;20360;-48
2021/08/28 23:09:14;;;;;;;;;;;21.30;46.80;;;;;;8364352;28;20389;-48
2021/08/28 23:13:14;;;;;;;;;;;21.20;46.80;;;;;;8364674;28;20326;-49
2021/08/28 23:17:15;;;;;;;;;;;21.30;46.90;;;;;;8363588;28;20003;-47
2021/08/28 23:21:15;;;;;;;;;;;21.20;46.80;;;;;;8363846;28;19955;-48